sensor_id;sensor_type;location;lat;lon;timestamp;P1;durP1;ratioP1;P2;durP2;ratioP2
10041;SDS011;5061;49.068;12.058;2024-01-15T00:01:59;26.20;;;11.70;;
10041;SDS011;5061;49.068;12.058;2024-01-15T00:05:19;20.20;;;9.23;;
10041;SDS011;5061;49.068;12.058;2024-01-15T00:08:40;22.87;;;9.30;;
10041;SDS011;5061;49.068;12.058;2024-01-15T00:12:01;27.37;;;10.57;;
10041;SDS011;5061;49.068;12.058;2024-01-15T00:15:22;17.53;;;8.17;;
10041;SDS011;5061;49.068;12.058;2024-01-15T00:18:42;21.37;;;9.43;;
10041;SDS011;5061;49.068;12.058;2024-01-15T00:22:03;15.77;;;7.50;;
10041;SDS011;5061;49.068;12.058;2024-01-15T00:25:24;22.13;;;9.33;;
10041;SDS011;5061;49.068;12.058;2024-01-15T00:28:44;40.23;;;17.63;;
10041;SDS011;5061;49.068;12.058;2024-01-15T00:32:05;44.20;;;18.27;;
10041;SDS011;5061;49.068;12.058;2024-01-15T00:35:26;52.57;;;22.50;;
10041;SDS011;5061;49.068;12.058;2024-01-15T00:38:47;63.20;;;22.60;;
10041;SDS011;5061;49.068;12.058;2024-01-15T00:42:07;65.53;;;20.67;;
10041;SDS011;5061;49.068;12.058;2024-01-15T00:45:28;59.03;;;21.77;;
10041;SDS011;5061;49.068;12.058;2024-01-15T00:48:48;54.20;;;20.53;;
10041;SDS011;5061;49.068;12.058;2024-01-15T00:52:09;61.97;;;21.63;;
10041;SDS011;5061;49.068;12.058;2024-01-15T00:55:30;52.97;;;20.50;;
10041;SDS011;5061;49.068;12.058;2024-01-15T00:58:50;54.77;;;20.80;;
10041;SDS011;5061;49.068;12.058;2024-01-15T01:02:11;51.60;;;18.93;;
10041;SDS011;5061;49.068;12.058;2024-01-15T01:05:32;48.50;;;17.63;;
10041;SDS011;5061;49.068;12.058;2024-01-15T01:08:54;63.03;;;19.93;;
10041;SDS011;5061;49.068;12.058;2024-01-15T01:12:14;51.30;;;18.67;;
10041;SDS011;5061;49.068;12.058;2024-01-15T01:15:35;43.77;;;16.70;;
10041;SDS011;5061;49.068;12.058;2024-01-15T01:19:02;55.37;;;19.40;;
10041;SDS011;5061;49.068;12.058;2024-01-15T01:22:26;58.07;;;22.10;;
10041;SDS011;5061;49.068;12.058;2024-01-15T01:25:47;47.30;;;18.30;;
10041;SDS011;5061;49.068;12.058;2024-01-15T01:29:08;53.63;;;20.17;;
10041;SDS011;5061;49.068;12.058;2024-01-15T01:32:28;52.20;;;20.83;;
10041;SDS011;5061;49.068;12.058;2024-01-15T01:35:49;44.80;;;17.20;;
10041;SDS011;5061;49.068;12.058;2024-01-15T01:39:10;55.27;;;18.67;;
10041;SDS011;5061;49.068;12.058;2024-01-15T01:42:31;53.63;;;18.10;;
10041;SDS011;5061;49.068;12.058;2024-01-15T01:45:51;51.40;;;18.67;;
10041;SDS011;5061;49.068;12.058;2024-01-15T01:49:12;44.63;;;16.53;;
10041;SDS011;5061;49.068;12.058;2024-01-15T01:52:33;50.73;;;16.23;;
10041;SDS011;5061;49.068;12.058;2024-01-15T01:55:55;31.47;;;15.00;;
10041;SDS011;5061;49.068;12.058;2024-01-15T01:59:17;44.10;;;16.00;;
10041;SDS011;5061;49.068;12.058;2024-01-15T02:02:38;58.73;;;17.80;;
10041;SDS011;5061;49.068;12.058;2024-01-15T02:06:01;46.50;;;15.07;;
10041;SDS011;5061;49.068;12.058;2024-01-15T02:09:22;40.57;;;16.07;;
10041;SDS011;5061;49.068;12.058;2024-01-15T02:12:42;45.87;;;15.10;;
10041;SDS011;5061;49.068;12.058;2024-01-15T02:16:04;48.63;;;15.67;;
10041;SDS011;5061;49.068;12.058;2024-01-15T02:19:24;58.63;;;19.23;;
10041;SDS011;5061;49.068;12.058;2024-01-15T02:22:45;56.40;;;17.97;;
10041;SDS011;5061;49.068;12.058;2024-01-15T02:26:05;38.47;;;16.10;;
10041;SDS011;5061;49.068;12.058;2024-01-15T02:29:28;49.43;;;17.77;;
10041;SDS011;5061;49.068;12.058;2024-01-15T02:32:49;45.63;;;17.90;;
10041;SDS011;5061;49.068;12.058;2024-01-15T02:36:10;58.10;;;19.10;;
10041;SDS011;5061;49.068;12.058;2024-01-15T02:39:30;45.30;;;16.33;;
10041;SDS011;5061;49.068;12.058;2024-01-15T02:42:51;63.87;;;17.73;;
10041;SDS011;5061;49.068;12.058;2024-01-15T02:46:12;50.77;;;15.67;;
10041;SDS011;5061;49.068;12.058;2024-01-15T02:49:33;48.87;;;16.10;;
10041;SDS011;5061;49.068;12.058;2024-01-15T02:52:54;42.97;;;15.60;;
10041;SDS011;5061;49.068;12.058;2024-01-15T02:56:15;54.73;;;20.43;;
10041;SDS011;5061;49.068;12.058;2024-01-15T02:59:35;50.47;;;18.20;;
10041;SDS011;5061;49.068;12.058;2024-01-15T03:02:56;49.97;;;16.73;;
10041;SDS011;5061;49.068;12.058;2024-01-15T03:06:17;39.43;;;14.20;;
10041;SDS011;5061;49.068;12.058;2024-01-15T03:09:37;31.70;;;13.40;;
10041;SDS011;5061;49.068;12.058;2024-01-15T03:12:58;44.50;;;15.57;;
10041;SDS011;5061;49.068;12.058;2024-01-15T03:16:19;33.90;;;13.50;;
10041;SDS011;5061;49.068;12.058;2024-01-15T03:19:40;41.73;;;14.77;;
10041;SDS011;5061;49.068;12.058;2024-01-15T03:23:01;41.47;;;15.50;;
10041;SDS011;5061;49.068;12.058;2024-01-15T03:26:22;41.23;;;13.87;;
10041;SDS011;5061;49.068;12.058;2024-01-15T03:29:43;38.43;;;13.03;;
10041;SDS011;5061;49.068;12.058;2024-01-15T03:33:03;35.20;;;12.63;;
10041;SDS011;5061;49.068;12.058;2024-01-15T03:36:24;44.80;;;14.77;;
10041;SDS011;5061;49.068;12.058;2024-01-15T03:39:45;32.40;;;13.67;;
10041;SDS011;5061;49.068;12.058;2024-01-15T03:43:06;41.50;;;13.43;;
10041;SDS011;5061;49.068;12.058;2024-01-15T03:46:26;39.20;;;14.23;;
10041;SDS011;5061;49.068;12.058;2024-01-15T03:49:47;32.47;;;13.43;;
10041;SDS011;5061;49.068;12.058;2024-01-15T03:53:08;34.77;;;13.83;;
10041;SDS011;5061;49.068;12.058;2024-01-15T03:56:28;39.13;;;12.93;;
10041;SDS011;5061;49.068;12.058;2024-01-15T03:59:49;42.23;;;14.33;;
10041;SDS011;5061;49.068;12.058;2024-01-15T04:03:09;38.47;;;13.60;;
10041;SDS011;5061;49.068;12.058;2024-01-15T04:06:30;31.40;;;10.97;;
10041;SDS011;5061;49.068;12.058;2024-01-15T04:09:50;35.37;;;13.70;;
10041;SDS011;5061;49.068;12.058;2024-01-15T04:13:11;38.93;;;12.60;;
10041;SDS011;5061;49.068;12.058;2024-01-15T04:16:32;30.90;;;12.50;;
10041;SDS011;5061;49.068;12.058;2024-01-15T04:19:52;33.03;;;11.83;;
10041;SDS011;5061;49.068;12.058;2024-01-15T04:23:13;44.53;;;13.47;;
10041;SDS011;5061;49.068;12.058;2024-01-15T04:26:34;37.57;;;12.07;;
10041;SDS011;5061;49.068;12.058;2024-01-15T04:29:54;31.20;;;12.03;;
10041;SDS011;5061;49.068;12.058;2024-01-15T04:33:15;30.33;;;12.03;;
10041;SDS011;5061;49.068;12.058;2024-01-15T04:36:39;24.07;;;10.67;;
10041;SDS011;5061;49.068;12.058;2024-01-15T04:40:02;29.87;;;11.40;;
10041;SDS011;5061;49.068;12.058;2024-01-15T04:43:24;26.10;;;10.90;;
10041;SDS011;5061;49.068;12.058;2024-01-15T04:46:44;32.77;;;12.40;;
10041;SDS011;5061;49.068;12.058;2024-01-15T04:50:05;32.67;;;11.87;;
10041;SDS011;5061;49.068;12.058;2024-01-15T04:53:26;34.23;;;11.20;;
10041;SDS011;5061;49.068;12.058;2024-01-15T04:56:46;28.07;;;10.67;;
10041;SDS011;5061;49.068;12.058;2024-01-15T05:00:07;43.70;;;13.63;;
10041;SDS011;5061;49.068;12.058;2024-01-15T05:03:28;29.40;;;12.23;;
10041;SDS011;5061;49.068;12.058;2024-01-15T05:06:49;32.97;;;13.60;;
10041;SDS011;5061;49.068;12.058;2024-01-15T05:10:10;28.00;;;12.10;;
10041;SDS011;5061;49.068;12.058;2024-01-15T05:13:30;37.03;;;13.67;;
10041;SDS011;5061;49.068;12.058;2024-01-15T05:16:51;42.13;;;12.43;;
10041;SDS011;5061;49.068;12.058;2024-01-15T05:20:12;25.77;;;11.43;;
10041;SDS011;5061;49.068;12.058;2024-01-15T05:23:32;36.60;;;15.07;;
10041;SDS011;5061;49.068;12.058;2024-01-15T05:26:53;25.93;;;10.73;;
10041;SDS011;5061;49.068;12.058;2024-01-15T05:30:14;38.33;;;10.83;;
10041;SDS011;5061;49.068;12.058;2024-01-15T05:33:34;30.97;;;11.27;;
10041;SDS011;5061;49.068;12.058;2024-01-15T05:36:55;28.33;;;11.50;;
10041;SDS011;5061;49.068;12.058;2024-01-15T05:40:15;26.97;;;11.07;;
10041;SDS011;5061;49.068;12.058;2024-01-15T05:43:36;34.07;;;11.70;;
10041;SDS011;5061;49.068;12.058;2024-01-15T05:46:57;28.33;;;10.80;;
10041;SDS011;5061;49.068;12.058;2024-01-15T05:50:17;31.00;;;12.50;;
10041;SDS011;5061;49.068;12.058;2024-01-15T05:53:38;32.93;;;11.97;;
10041;SDS011;5061;49.068;12.058;2024-01-15T05:57:00;22.47;;;9.20;;
10041;SDS011;5061;49.068;12.058;2024-01-15T06:00:20;28.97;;;10.43;;
10041;SDS011;5061;49.068;12.058;2024-01-15T06:03:41;29.07;;;11.50;;
10041;SDS011;5061;49.068;12.058;2024-01-15T06:07:02;30.50;;;12.33;;
10041;SDS011;5061;49.068;12.058;2024-01-15T06:10:23;28.13;;;10.93;;
10041;SDS011;5061;49.068;12.058;2024-01-15T06:13:44;32.70;;;11.60;;
10041;SDS011;5061;49.068;12.058;2024-01-15T06:17:04;25.70;;;11.23;;
10041;SDS011;5061;49.068;12.058;2024-01-15T06:20:25;32.63;;;11.90;;
10041;SDS011;5061;49.068;12.058;2024-01-15T06:23:45;29.10;;;11.93;;
10041;SDS011;5061;49.068;12.058;2024-01-15T06:27:06;28.93;;;11.80;;
10041;SDS011;5061;49.068;12.058;2024-01-15T06:30:26;26.47;;;11.47;;
10041;SDS011;5061;49.068;12.058;2024-01-15T06:33:47;29.83;;;10.63;;
10041;SDS011;5061;49.068;12.058;2024-01-15T06:37:08;22.77;;;9.33;;
10041;SDS011;5061;49.068;12.058;2024-01-15T06:40:29;24.43;;;10.60;;
10041;SDS011;5061;49.068;12.058;2024-01-15T06:43:53;30.60;;;10.63;;
10041;SDS011;5061;49.068;12.058;2024-01-15T06:47:16;24.10;;;9.63;;
10041;SDS011;5061;49.068;12.058;2024-01-15T06:50:40;26.63;;;10.00;;
10041;SDS011;5061;49.068;12.058;2024-01-15T06:54:01;25.03;;;10.40;;
10041;SDS011;5061;49.068;12.058;2024-01-15T06:57:21;20.93;;;8.90;;
10041;SDS011;5061;49.068;12.058;2024-01-15T07:00:42;22.03;;;9.00;;
10041;SDS011;5061;49.068;12.058;2024-01-15T07:04:03;21.77;;;8.83;;
10041;SDS011;5061;49.068;12.058;2024-01-15T07:07:23;21.60;;;8.30;;
10041;SDS011;5061;49.068;12.058;2024-01-15T07:10:45;19.70;;;7.10;;
10041;SDS011;5061;49.068;12.058;2024-01-15T07:14:05;22.27;;;8.77;;
10041;SDS011;5061;49.068;12.058;2024-01-15T07:17:26;21.20;;;8.60;;
10041;SDS011;5061;49.068;12.058;2024-01-15T07:20:46;16.53;;;7.80;;
10041;SDS011;5061;49.068;12.058;2024-01-15T07:24:07;14.80;;;7.90;;
10041;SDS011;5061;49.068;12.058;2024-01-15T07:27:28;16.50;;;7.00;;
10041;SDS011;5061;49.068;12.058;2024-01-15T07:30:49;17.20;;;7.30;;
10041;SDS011;5061;49.068;12.058;2024-01-15T07:34:10;13.93;;;7.57;;
10041;SDS011;5061;49.068;12.058;2024-01-15T07:37:31;15.43;;;7.53;;
10041;SDS011;5061;49.068;12.058;2024-01-15T07:40:51;15.07;;;6.30;;
10041;SDS011;5061;49.068;12.058;2024-01-15T07:44:13;18.47;;;7.30;;
10041;SDS011;5061;49.068;12.058;2024-01-15T07:47:34;16.00;;;7.20;;
10041;SDS011;5061;49.068;12.058;2024-01-15T07:50:55;16.60;;;6.73;;
10041;SDS011;5061;49.068;12.058;2024-01-15T07:54:16;13.13;;;6.33;;
10041;SDS011;5061;49.068;12.058;2024-01-15T07:57:36;15.20;;;7.10;;
10041;SDS011;5061;49.068;12.058;2024-01-15T08:00:57;15.53;;;7.10;;
10041;SDS011;5061;49.068;12.058;2024-01-15T08:04:18;15.80;;;6.00;;
10041;SDS011;5061;49.068;12.058;2024-01-15T08:07:38;17.33;;;6.27;;
10041;SDS011;5061;49.068;12.058;2024-01-15T08:10:59;10.87;;;6.00;;
10041;SDS011;5061;49.068;12.058;2024-01-15T08:14:20;19.77;;;6.40;;
10041;SDS011;5061;49.068;12.058;2024-01-15T08:17:40;15.30;;;6.70;;
10041;SDS011;5061;49.068;12.058;2024-01-15T08:21:01;13.80;;;6.10;;
10041;SDS011;5061;49.068;12.058;2024-01-15T08:24:22;16.50;;;6.30;;
10041;SDS011;5061;49.068;12.058;2024-01-15T08:27:43;12.13;;;5.90;;
10041;SDS011;5061;49.068;12.058;2024-01-15T08:31:03;15.37;;;6.77;;
10041;SDS011;5061;49.068;12.058;2024-01-15T08:34:24;15.50;;;7.03;;
10041;SDS011;5061;49.068;12.058;2024-01-15T08:37:45;13.13;;;6.10;;
10041;SDS011;5061;49.068;12.058;2024-01-15T08:41:05;12.37;;;5.67;;
10041;SDS011;5061;49.068;12.058;2024-01-15T08:44:26;15.57;;;6.20;;
10041;SDS011;5061;49.068;12.058;2024-01-15T08:47:46;14.63;;;6.17;;
10041;SDS011;5061;49.068;12.058;2024-01-15T08:51:07;14.00;;;5.77;;
10041;SDS011;5061;49.068;12.058;2024-01-15T08:54:28;14.63;;;5.87;;
10041;SDS011;5061;49.068;12.058;2024-01-15T08:57:49;15.37;;;6.43;;
10041;SDS011;5061;49.068;12.058;2024-01-15T09:01:10;12.60;;;6.20;;
10041;SDS011;5061;49.068;12.058;2024-01-15T09:04:31;13.97;;;6.70;;
10041;SDS011;5061;49.068;12.058;2024-01-15T09:07:52;17.00;;;6.27;;
10041;SDS011;5061;49.068;12.058;2024-01-15T09:11:14;15.13;;;6.00;;
10041;SDS011;5061;49.068;12.058;2024-01-15T09:14:34;15.70;;;7.40;;
10041;SDS011;5061;49.068;12.058;2024-01-15T09:17:55;13.87;;;7.00;;
10041;SDS011;5061;49.068;12.058;2024-01-15T09:21:18;17.33;;;6.30;;
10041;SDS011;5061;49.068;12.058;2024-01-15T09:24:40;14.17;;;5.17;;
10041;SDS011;5061;49.068;12.058;2024-01-15T09:28:02;10.10;;;4.30;;
10041;SDS011;5061;49.068;12.058;2024-01-15T09:31:22;21.47;;;6.27;;
10041;SDS011;5061;49.068;12.058;2024-01-15T09:34:43;15.47;;;6.10;;
10041;SDS011;5061;49.068;12.058;2024-01-15T09:38:04;13.40;;;4.63;;
10041;SDS011;5061;49.068;12.058;2024-01-15T09:41:25;15.67;;;5.60;;
10041;SDS011;5061;49.068;12.058;2024-01-15T09:44:46;16.40;;;6.70;;
10041;SDS011;5061;49.068;12.058;2024-01-15T09:48:08;8.30;;;5.23;;
10041;SDS011;5061;49.068;12.058;2024-01-15T09:51:32;11.20;;;6.00;;
10041;SDS011;5061;49.068;12.058;2024-01-15T09:54:52;10.87;;;5.40;;
10041;SDS011;5061;49.068;12.058;2024-01-15T09:58:13;12.53;;;5.70;;
10041;SDS011;5061;49.068;12.058;2024-01-15T10:01:34;9.93;;;5.93;;
10041;SDS011;5061;49.068;12.058;2024-01-15T10:04:56;17.07;;;6.50;;
10041;SDS011;5061;49.068;12.058;2024-01-15T10:08:17;15.97;;;7.57;;
10041;SDS011;5061;49.068;12.058;2024-01-15T10:11:38;21.13;;;7.43;;
10041;SDS011;5061;49.068;12.058;2024-01-15T10:14:59;15.73;;;6.60;;
10041;SDS011;5061;49.068;12.058;2024-01-15T10:18:20;10.17;;;5.23;;
10041;SDS011;5061;49.068;12.058;2024-01-15T10:21:40;14.27;;;6.33;;
10041;SDS011;5061;49.068;12.058;2024-01-15T10:25:01;17.03;;;7.40;;
10041;SDS011;5061;49.068;12.058;2024-01-15T10:28:22;13.00;;;5.90;;
10041;SDS011;5061;49.068;12.058;2024-01-15T10:31:42;15.20;;;6.03;;
10041;SDS011;5061;49.068;12.058;2024-01-15T10:35:04;14.00;;;6.50;;
10041;SDS011;5061;49.068;12.058;2024-01-15T10:38:27;13.07;;;6.40;;
10041;SDS011;5061;49.068;12.058;2024-01-15T10:41:48;16.93;;;6.30;;
10041;SDS011;5061;49.068;12.058;2024-01-15T10:45:09;18.83;;;5.93;;
10041;SDS011;5061;49.068;12.058;2024-01-15T10:48:30;16.33;;;7.80;;
10041;SDS011;5061;49.068;12.058;2024-01-15T10:51:56;15.03;;;6.87;;
10041;SDS011;5061;49.068;12.058;2024-01-15T10:55:16;11.40;;;5.60;;
10041;SDS011;5061;49.068;12.058;2024-01-15T10:58:38;14.13;;;6.30;;
10041;SDS011;5061;49.068;12.058;2024-01-15T11:02:00;11.93;;;6.70;;
10041;SDS011;5061;49.068;12.058;2024-01-15T11:05:21;12.63;;;6.97;;
10041;SDS011;5061;49.068;12.058;2024-01-15T11:08:48;13.50;;;6.90;;
10041;SDS011;5061;49.068;12.058;2024-01-15T11:12:10;12.87;;;5.87;;
10041;SDS011;5061;49.068;12.058;2024-01-15T11:15:32;11.20;;;5.97;;
10041;SDS011;5061;49.068;12.058;2024-01-15T11:19:17;14.77;;;5.73;;
10041;SDS011;5061;49.068;12.058;2024-01-15T11:22:48;19.33;;;6.23;;
10041;SDS011;5061;49.068;12.058;2024-01-15T11:30:02;8.53;;;5.23;;
10041;SDS011;5061;49.068;12.058;2024-01-15T11:33:33;15.30;;;5.97;;
10041;SDS011;5061;49.068;12.058;2024-01-15T11:40:17;7.87;;;4.20;;
10041;SDS011;5061;49.068;12.058;2024-01-15T11:43:41;7.80;;;5.10;;
10041;SDS011;5061;49.068;12.058;2024-01-15T11:47:06;7.77;;;4.33;;
10041;SDS011;5061;49.068;12.058;2024-01-15T11:50:29;10.57;;;4.70;;
10041;SDS011;5061;49.068;12.058;2024-01-15T11:53:53;9.23;;;4.93;;
10041;SDS011;5061;49.068;12.058;2024-01-15T11:57:25;9.70;;;4.90;;
10041;SDS011;5061;49.068;12.058;2024-01-15T12:01:07;6.67;;;4.00;;
10041;SDS011;5061;49.068;12.058;2024-01-15T12:04:28;10.70;;;5.30;;
10041;SDS011;5061;49.068;12.058;2024-01-15T12:07:49;12.30;;;5.07;;
10041;SDS011;5061;49.068;12.058;2024-01-15T12:11:11;11.30;;;5.93;;
10041;SDS011;5061;49.068;12.058;2024-01-15T12:14:35;11.03;;;4.70;;
10041;SDS011;5061;49.068;12.058;2024-01-15T12:17:59;12.17;;;5.00;;
10041;SDS011;5061;49.068;12.058;2024-01-15T12:21:20;8.90;;;5.30;;
10041;SDS011;5061;49.068;12.058;2024-01-15T12:24:41;9.00;;;4.83;;
10041;SDS011;5061;49.068;12.058;2024-01-15T12:28:01;12.37;;;5.17;;
10041;SDS011;5061;49.068;12.058;2024-01-15T12:31:22;9.23;;;4.47;;
10041;SDS011;5061;49.068;12.058;2024-01-15T12:34:43;10.43;;;5.60;;
10041;SDS011;5061;49.068;12.058;2024-01-15T12:38:04;8.90;;;4.00;;
10041;SDS011;5061;49.068;12.058;2024-01-15T12:41:24;8.30;;;4.47;;
10041;SDS011;5061;49.068;12.058;2024-01-15T12:44:45;16.70;;;4.60;;
10041;SDS011;5061;49.068;12.058;2024-01-15T12:48:06;11.30;;;4.90;;
10041;SDS011;5061;49.068;12.058;2024-01-15T12:51:27;9.33;;;4.17;;
10041;SDS011;5061;49.068;12.058;2024-01-15T12:54:48;8.83;;;4.40;;
10041;SDS011;5061;49.068;12.058;2024-01-15T12:58:10;8.67;;;4.50;;
10041;SDS011;5061;49.068;12.058;2024-01-15T13:01:30;6.23;;;4.10;;
10041;SDS011;5061;49.068;12.058;2024-01-15T13:04:52;8.40;;;5.10;;
10041;SDS011;5061;49.068;12.058;2024-01-15T13:08:14;13.77;;;4.80;;
10041;SDS011;5061;49.068;12.058;2024-01-15T13:11:34;8.10;;;4.20;;
10041;SDS011;5061;49.068;12.058;2024-01-15T13:14:55;10.10;;;4.60;;
10041;SDS011;5061;49.068;12.058;2024-01-15T13:18:16;8.73;;;4.53;;
10041;SDS011;5061;49.068;12.058;2024-01-15T13:21:37;7.53;;;4.60;;
10041;SDS011;5061;49.068;12.058;2024-01-15T13:24:58;11.17;;;5.10;;
10041;SDS011;5061;49.068;12.058;2024-01-15T13:28:19;7.40;;;4.17;;
10041;SDS011;5061;49.068;12.058;2024-01-15T13:31:41;10.60;;;4.70;;
10041;SDS011;5061;49.068;12.058;2024-01-15T13:35:02;6.93;;;3.67;;
10041;SDS011;5061;49.068;12.058;2024-01-15T13:38:25;12.60;;;4.97;;
10041;SDS011;5061;49.068;12.058;2024-01-15T13:41:47;8.60;;;4.30;;
10041;SDS011;5061;49.068;12.058;2024-01-15T13:45:08;11.17;;;4.50;;
10041;SDS011;5061;49.068;12.058;2024-01-15T13:48:29;10.20;;;4.57;;
10041;SDS011;5061;49.068;12.058;2024-01-15T13:51:49;13.30;;;5.30;;
10041;SDS011;5061;49.068;12.058;2024-01-15T13:55:10;19.43;;;5.80;;
10041;SDS011;5061;49.068;12.058;2024-01-15T13:58:31;7.70;;;4.67;;
10041;SDS011;5061;49.068;12.058;2024-01-15T14:01:52;9.00;;;4.63;;
10041;SDS011;5061;49.068;12.058;2024-01-15T14:05:13;12.37;;;5.97;;
10041;SDS011;5061;49.068;12.058;2024-01-15T14:08:37;21.50;;;5.63;;
10041;SDS011;5061;49.068;12.058;2024-01-15T14:11:57;11.53;;;4.73;;
10041;SDS011;5061;49.068;12.058;2024-01-15T14:15:18;9.07;;;5.53;;
10041;SDS011;5061;49.068;12.058;2024-01-15T14:18:41;8.57;;;4.83;;
10041;SDS011;5061;49.068;12.058;2024-01-15T14:22:02;13.40;;;5.50;;
10041;SDS011;5061;49.068;12.058;2024-01-15T14:25:23;11.70;;;5.63;;
10041;SDS011;5061;49.068;12.058;2024-01-15T14:28:46;9.53;;;5.60;;
10041;SDS011;5061;49.068;12.058;2024-01-15T14:32:08;8.47;;;5.07;;
10041;SDS011;5061;49.068;12.058;2024-01-15T14:35:28;8.80;;;4.90;;
10041;SDS011;5061;49.068;12.058;2024-01-15T14:38:49;8.43;;;3.87;;
10041;SDS011;5061;49.068;12.058;2024-01-15T14:42:10;11.20;;;4.67;;
10041;SDS011;5061;49.068;12.058;2024-01-15T14:45:31;8.50;;;5.07;;
10041;SDS011;5061;49.068;12.058;2024-01-15T14:48:51;8.53;;;4.50;;
10041;SDS011;5061;49.068;12.058;2024-01-15T14:52:12;8.87;;;4.63;;
10041;SDS011;5061;49.068;12.058;2024-01-15T14:55:33;9.50;;;5.00;;
10041;SDS011;5061;49.068;12.058;2024-01-15T14:58:53;8.70;;;4.00;;
10041;SDS011;5061;49.068;12.058;2024-01-15T15:02:14;7.37;;;4.40;;
10041;SDS011;5061;49.068;12.058;2024-01-15T15:05:35;5.47;;;3.50;;
10041;SDS011;5061;49.068;12.058;2024-01-15T15:08:56;11.83;;;4.87;;
10041;SDS011;5061;49.068;12.058;2024-01-15T15:12:19;8.87;;;4.07;;
10041;SDS011;5061;49.068;12.058;2024-01-15T15:15:40;7.87;;;4.43;;
10041;SDS011;5061;49.068;12.058;2024-01-15T15:19:00;7.10;;;3.90;;
10041;SDS011;5061;49.068;12.058;2024-01-15T15:22:21;9.40;;;4.40;;
10041;SDS011;5061;49.068;12.058;2024-01-15T15:25:41;7.67;;;4.20;;
10041;SDS011;5061;49.068;12.058;2024-01-15T15:29:03;7.90;;;4.57;;
10041;SDS011;5061;49.068;12.058;2024-01-15T15:32:23;7.87;;;3.80;;
10041;SDS011;5061;49.068;12.058;2024-01-15T15:35:44;8.60;;;5.77;;
10041;SDS011;5061;49.068;12.058;2024-01-15T15:39:05;5.60;;;3.40;;
10041;SDS011;5061;49.068;12.058;2024-01-15T15:42:25;9.70;;;4.83;;
10041;SDS011;5061;49.068;12.058;2024-01-15T15:45:46;9.80;;;4.00;;
10041;SDS011;5061;49.068;12.058;2024-01-15T15:49:07;7.20;;;4.50;;
10041;SDS011;5061;49.068;12.058;2024-01-15T15:52:28;8.27;;;4.80;;
10041;SDS011;5061;49.068;12.058;2024-01-15T15:55:48;9.03;;;4.60;;
10041;SDS011;5061;49.068;12.058;2024-01-15T15:59:09;17.47;;;4.57;;
10041;SDS011;5061;49.068;12.058;2024-01-15T16:02:29;9.67;;;5.20;;
10041;SDS011;5061;49.068;12.058;2024-01-15T16:05:50;9.70;;;4.67;;
10041;SDS011;5061;49.068;12.058;2024-01-15T16:09:10;9.13;;;5.10;;
10041;SDS011;5061;49.068;12.058;2024-01-15T16:12:31;9.83;;;5.63;;
10041;SDS011;5061;49.068;12.058;2024-01-15T16:15:52;9.40;;;4.83;;
10041;SDS011;5061;49.068;12.058;2024-01-15T16:19:12;10.17;;;4.53;;
10041;SDS011;5061;49.068;12.058;2024-01-15T16:22:33;6.40;;;4.50;;
10041;SDS011;5061;49.068;12.058;2024-01-15T16:25:53;7.97;;;4.67;;
10041;SDS011;5061;49.068;12.058;2024-01-15T16:29:14;8.50;;;4.70;;
10041;SDS011;5061;49.068;12.058;2024-01-15T16:32:35;7.80;;;5.00;;
10041;SDS011;5061;49.068;12.058;2024-01-15T16:35:56;7.80;;;4.80;;
10041;SDS011;5061;49.068;12.058;2024-01-15T16:39:17;6.57;;;3.80;;
10041;SDS011;5061;49.068;12.058;2024-01-15T16:42:38;9.00;;;3.90;;
10041;SDS011;5061;49.068;12.058;2024-01-15T16:45:58;7.60;;;4.43;;
10041;SDS011;5061;49.068;12.058;2024-01-15T16:49:19;6.63;;;3.80;;
10041;SDS011;5061;49.068;12.058;2024-01-15T16:52:40;5.67;;;3.90;;
10041;SDS011;5061;49.068;12.058;2024-01-15T16:56:00;9.17;;;5.40;;
10041;SDS011;5061;49.068;12.058;2024-01-15T16:59:21;6.70;;;4.37;;
10041;SDS011;5061;49.068;12.058;2024-01-15T17:02:42;8.17;;;4.53;;
10041;SDS011;5061;49.068;12.058;2024-01-15T17:06:02;5.70;;;4.33;;
10041;SDS011;5061;49.068;12.058;2024-01-15T17:09:23;8.80;;;4.93;;
10041;SDS011;5061;49.068;12.058;2024-01-15T17:12:44;6.37;;;4.17;;
10041;SDS011;5061;49.068;12.058;2024-01-15T17:16:05;8.13;;;4.73;;
10041;SDS011;5061;49.068;12.058;2024-01-15T17:19:26;6.67;;;4.10;;
10041;SDS011;5061;49.068;12.058;2024-01-15T17:22:47;9.97;;;5.00;;
10041;SDS011;5061;49.068;12.058;2024-01-15T17:26:07;6.30;;;3.83;;
10041;SDS011;5061;49.068;12.058;2024-01-15T17:29:28;8.93;;;4.97;;
10041;SDS011;5061;49.068;12.058;2024-01-15T17:32:48;6.00;;;4.17;;
10041;SDS011;5061;49.068;12.058;2024-01-15T17:36:09;5.97;;;4.40;;
10041;SDS011;5061;49.068;12.058;2024-01-15T17:39:30;8.50;;;4.80;;
10041;SDS011;5061;49.068;12.058;2024-01-15T17:42:51;6.53;;;4.40;;
10041;SDS011;5061;49.068;12.058;2024-01-15T17:46:11;9.73;;;5.27;;
10041;SDS011;5061;49.068;12.058;2024-01-15T17:49:34;8.50;;;5.00;;
10041;SDS011;5061;49.068;12.058;2024-01-15T17:52:55;8.73;;;4.43;;
10041;SDS011;5061;49.068;12.058;2024-01-15T17:56:17;7.90;;;5.03;;
10041;SDS011;5061;49.068;12.058;2024-01-15T17:59:38;10.20;;;5.67;;
10041;SDS011;5061;49.068;12.058;2024-01-15T18:02:58;7.77;;;4.70;;
10041;SDS011;5061;49.068;12.058;2024-01-15T18:06:19;10.30;;;6.10;;
10041;SDS011;5061;49.068;12.058;2024-01-15T18:09:40;11.50;;;6.07;;
10041;SDS011;5061;49.068;12.058;2024-01-15T18:13:01;12.20;;;5.53;;
10041;SDS011;5061;49.068;12.058;2024-01-15T18:16:21;7.83;;;5.43;;
10041;SDS011;5061;49.068;12.058;2024-01-15T18:19:45;10.43;;;4.73;;
10041;SDS011;5061;49.068;12.058;2024-01-15T18:23:06;9.50;;;5.10;;
10041;SDS011;5061;49.068;12.058;2024-01-15T18:26:27;9.90;;;5.30;;
10041;SDS011;5061;49.068;12.058;2024-01-15T18:29:47;8.30;;;5.97;;
10041;SDS011;5061;49.068;12.058;2024-01-15T18:33:09;10.30;;;5.57;;
10041;SDS011;5061;49.068;12.058;2024-01-15T18:36:30;10.63;;;7.07;;
10041;SDS011;5061;49.068;12.058;2024-01-15T18:39:50;10.40;;;6.57;;
10041;SDS011;5061;49.068;12.058;2024-01-15T18:43:11;10.60;;;6.80;;
10041;SDS011;5061;49.068;12.058;2024-01-15T18:46:34;12.17;;;8.00;;
10041;SDS011;5061;49.068;12.058;2024-01-15T18:49:54;9.67;;;6.37;;
10041;SDS011;5061;49.068;12.058;2024-01-15T18:53:15;13.37;;;7.83;;
10041;SDS011;5061;49.068;12.058;2024-01-15T18:56:41;11.80;;;7.00;;
10041;SDS011;5061;49.068;12.058;2024-01-15T19:00:03;14.23;;;7.57;;
10041;SDS011;5061;49.068;12.058;2024-01-15T19:03:25;10.80;;;7.27;;
10041;SDS011;5061;49.068;12.058;2024-01-15T19:06:46;13.97;;;7.77;;
10041;SDS011;5061;49.068;12.058;2024-01-15T19:10:06;12.73;;;7.23;;
10041;SDS011;5061;49.068;12.058;2024-01-15T19:13:28;11.93;;;7.13;;
10041;SDS011;5061;49.068;12.058;2024-01-15T19:16:48;13.40;;;6.57;;
10041;SDS011;5061;49.068;12.058;2024-01-15T19:20:09;11.27;;;6.13;;
10041;SDS011;5061;49.068;12.058;2024-01-15T19:23:31;9.83;;;6.20;;
10041;SDS011;5061;49.068;12.058;2024-01-15T19:26:52;12.47;;;6.80;;
10041;SDS011;5061;49.068;12.058;2024-01-15T19:30:13;14.03;;;7.80;;
10041;SDS011;5061;49.068;12.058;2024-01-15T19:33:34;16.27;;;6.47;;
10041;SDS011;5061;49.068;12.058;2024-01-15T19:36:55;16.83;;;6.70;;
10041;SDS011;5061;49.068;12.058;2024-01-15T19:40:16;11.77;;;6.20;;
10041;SDS011;5061;49.068;12.058;2024-01-15T19:43:37;9.50;;;5.93;;
10041;SDS011;5061;49.068;12.058;2024-01-15T19:46:57;11.60;;;6.60;;
10041;SDS011;5061;49.068;12.058;2024-01-15T19:50:18;13.87;;;6.83;;
10041;SDS011;5061;49.068;12.058;2024-01-15T19:53:38;20.23;;;7.90;;
10041;SDS011;5061;49.068;12.058;2024-01-15T19:56:59;15.53;;;6.63;;
10041;SDS011;5061;49.068;12.058;2024-01-15T20:00:20;9.87;;;6.30;;